• Join FlightAware (Why Join?)
  • Login
  • US Flag 
09:34PM EDT


 

Airport Tracker/Info


-or-


 

Live Flight TrackerFlight Track Log ✈ UPS1075 ✈ 13-Jun-2013 ✈ KEWR - KRFD

Flight Track Log - Related Links

Times and Time Zones

All times are in EDT time to prevent confusion due to time zone crossing. See the UPS1075 flight status page for this flight to view local times or setup timezone preferences in your user account.

Time Position Orientation Groundspeed Altitude Reporting Facility
EDT Latitude Longitude Course Direction KTS MPH feet Rate Location/Type
10:49PM 40.7010 -74.1610 192° South 134 154 2,000  Level FlightAware
10:49PM 40.7144 -74.1450 42° Northeast 135 155 2,300 1,380 Climbing FlightAware ADS-B
10:49PM 40.7230 -74.1333 46° Northeast 173 199 2,900 2,700 Climbing FlightAware ADS-B
10:50PM 40.7354 -74.1169 45° Northeast 183 211 3,900 2,520 Climbing FlightAware ADS-B
10:50PM 40.7396 -74.1126 38° Northeast 202 232 4,000 1,200 Climbing FlightAware ADS-B
10:50PM 40.7431 -74.1099 30° Northeast 211 243 4,100 1,080 Climbing FlightAware ADS-B
10:50PM 40.7493 -74.1071 19° North 219 252 4,200 1,560 Climbing FlightAware ADS-B
10:50PM 40.7669 -74.1078 358° North 229 264 4,700 1,860 Climbing FlightAware ADS-B
10:50PM 40.7702 -74.1094 340° North 251 289 4,800 2,520 Climbing FlightAware ADS-B
10:50PM 40.7745 -74.1122 334° Northwest 254 292 5,000 3,000 Climbing FlightAware ADS-B
10:51PM 40.7841 -74.1228 320° Northwest 258 297 5,500 3,000 Climbing FlightAware ADS-B
10:51PM 40.7894 -74.1328 305° West 261 300 5,900 3,120 Climbing FlightAware ADS-B
10:51PM 40.7981 -74.1550 297° West 264 304 6,700 3,180 Climbing FlightAware ADS-B
10:51PM 40.8052 -74.1741 296° West 268 308 7,400 3,000 Climbing FlightAware ADS-B
10:51PM 40.8128 -74.1936 297° West 270 311 8,000 2,160 Climbing FlightAware ADS-B
10:52PM 40.8161 -74.2011 300° West 274 315 8,100 1,080 Climbing FlightAware ADS-B
10:52PM 40.8199 -74.2087 303° West 271 312 8,200 1,800 Climbing FlightAware ADS-B
10:52PM 40.8234 -74.2150 306° West 276 318 8,400 3,000 Climbing FlightAware ADS-B
10:52PM 40.8291 -74.2246 308° West 276 318 8,800 3,180 Climbing FlightAware ADS-B
10:52PM 40.8357 -74.2346 311° West 278 320 9,200 3,180 Climbing FlightAware ADS-B
10:52PM 40.8420 -74.2441 311° West 280 322 9,600 2,580 Climbing FlightAware ADS-B
10:52PM 40.8496 -74.2556 311° West 285 328 9,900 1,560 Climbing FlightAware ADS-B
10:53PM 40.8689 -74.2844 312° West 293 337 10,400 1,080 Climbing FlightAware ADS-B
10:53PM 40.9001 -74.3306 312° West 315 362 10,900 1,080 Climbing FlightAware ADS-B
10:54PM 40.9314 -74.3786 311° West 353 406 11,600 2,100 Climbing FlightAware ADS-B
10:54PM 40.9638 -74.4285 311° West 360 414 13,000 2,700 Climbing FlightAware ADS-B
10:55PM 40.9976 -74.4808 311° West 370 426 14,400 2,640 Climbing FlightAware ADS-B
10:55PM 41.0318 -74.5335 311° West 376 433 15,700 2,520 Climbing FlightAware ADS-B
10:56PM 41.0675 -74.5884 311° West 386 444 17,000 2,280 Climbing FlightAware ADS-B
10:56PM 41.1106 -74.6550 311° West 395 455 18,300 2,160 Climbing FlightAware ADS-B
10:57PM 41.1381 -74.7020 308° West 400 460 19,200 2,280 Climbing FlightAware ADS-B
10:57PM 41.1533 -74.7335 303° West 403 464 19,800 2,100 Climbing FlightAware ADS-B
10:57PM 41.1816 -74.7980 300° West 408 470 20,800 1,860 Climbing FlightAware ADS-B
10:58PM 41.2110 -74.8653 300° West 415 478 21,700 1,740 Climbing FlightAware ADS-B
10:58PM 41.2404 -74.9323 300° West 422 486 22,600 1,860 Climbing FlightAware ADS-B
10:59PM 41.2702 -75.0005 300° West 428 493 23,600 1,920 Climbing FlightAware ADS-B
10:59PM 41.3009 -75.0706 300° West 434 499 24,600 1,920 Climbing FlightAware ADS-B
11:00PM 41.3322 -75.1429 300° West 439 505 25,600 1,920 Climbing FlightAware ADS-B
11:00PM 41.3629 -75.2148 300° West 443 510 26,600 1,860 Climbing FlightAware ADS-B
11:01PM 41.3959 -75.2922 300° West 448 516 27,600 1,800 Climbing FlightAware ADS-B
11:02PM 41.4294 -75.3711 300° West 454 522 28,600 1,740 Climbing FlightAware ADS-B
11:02PM 41.4591 -75.4418 299° West 457 526 29,400 1,860 Climbing FlightAware ADS-B
11:02PM 41.4847 -75.5133 296° West 454 522 30,400 2,100 Climbing FlightAware ADS-B
11:03PM 41.4954 -75.5485 292° West 451 519 30,900 2,280 Climbing FlightAware ADS-B
11:03PM 41.5178 -75.6268 291° West 448 516 32,100 2,340 Climbing FlightAware ADS-B
11:04PM 41.5403 -75.7054 291° West 443 510 33,300 2,400 Climbing FlightAware ADS-B
11:04PM 41.5632 -75.7854 291° West 436 502 34,600 2,340 Climbing FlightAware ADS-B
11:05PM 41.5867 -75.8682 291° West 433 498 35,800 1,920 Climbing FlightAware ADS-B
11:05PM 41.6083 -75.9446 291° West 431 496 36,700 1,740 Climbing FlightAware ADS-B
11:06PM 41.6301 -76.0214 291° West 429 494 37,600 1,200 Climbing FlightAware ADS-B
11:06PM 41.6518 -76.0987 291° West 426 490 38,000 360 Climbing FlightAware ADS-B
11:07PM 41.6740 -76.1778 291° West 428 493 38,000  Level FlightAware ADS-B
11:07PM 41.6890 -76.2320 290° West 427 491 38,000  Level FlightAware
11:08PM 41.7027 -76.2810 291° West 430 495 38,000  Level FlightAware ADS-B
11:08PM 41.7273 -76.3693 290° West 439 505 38,000  Level FlightAware ADS-B
11:09PM 41.7489 -76.4470 290° West 441 507 38,000  Level FlightAware ADS-B
11:09PM 41.7720 -76.5291 291° West 442 509 38,000  Level FlightAware ADS-B
11:10PM 41.7937 -76.6069 291° West 443 510 38,000  Level FlightAware ADS-B
11:10PM 41.8170 -76.6920 290° West 443 510 38,000  Level FlightAware
11:11PM 41.8560 -76.8330 290° West 445 512 38,000  Level FlightAware
11:12PM 41.8880 -76.9480 291° West 447 514 38,000  Level FlightAware
11:13PM 41.9160 -77.0510 290° West 446 513 38,000  Level FlightAware
11:13PM 41.9450 -77.1570 290° West 444 511 38,000  Level FlightAware
11:14PM 41.9740 -77.2680 289° West 445 512 38,000  Level FlightAware
11:15PM 42.0030 -77.3730 290° West 445 512 38,000  Level FlightAware
11:15PM 42.0340 -77.4910 290° West 443 510 38,000  Level FlightAware
11:16PM 42.0590 -77.5920 288° West 439 505 38,000  Level FlightAware
11:17PM 42.0730 -77.7090 279° West 434 499 38,000  Level FlightAware
11:18PM 42.0810 -77.8420 275° West 434 499 38,000  Level FlightAware
11:18PM 42.0870 -77.9460 274° West 434 499 38,000  Level FlightAware
11:19PM 42.0960 -78.1000 275° West 435 501 38,000  Level FlightAware
11:20PM 42.1020 -78.2080 274° West 437 503 38,000  Level FlightAware
11:20PM 42.1080 -78.3170 274° West 437 503 38,000  Level FlightAware
11:21PM 42.1140 -78.4300 274° West 436 502 38,000  Level FlightAware
11:22PM 42.1220 -78.5710 274° West 436 502 38,000  Level FlightAware
11:23PM 42.1290 -78.6970 274° West 435 501 38,000  Level FlightAware
11:24PM 42.1400 -78.9110 274° West 431 496 38,000  Level FlightAware
11:25PM 42.1460 -79.0410 274° West 431 496 38,000  Level FlightAware
11:26PM 42.1530 -79.1770 274° West 431 496 38,000  Level FlightAware
11:27PM 42.1590 -79.2940 274° West 433 498 38,000  Level FlightAware
11:27PM 42.1650 -79.4170 274° West 432 497 38,000  Level FlightAware
11:28PM 42.1700 -79.5420 273° West 432 497 38,000  Level FlightAware
11:29PM 42.1740 -79.6410 273° West 432 497 38,000  Level FlightAware
11:29PM 42.1790 -79.7570 273° West 432 497 38,000  Level FlightAware
11:30PM 42.1830 -79.8580 273° West 433 498 38,000  Level FlightAware
11:31PM 42.1880 -79.9680 274° West 434 499 38,000  Level FlightAware
11:32PM 42.1930 -80.0940 273° West 434 499 38,000  Level FlightAware
11:32PM 42.1980 -80.2370 273° West 435 501 38,000  Level FlightAware
11:33PM 42.2020 -80.3360 273° West 436 502 38,000  Level FlightAware
11:34PM 42.2050 -80.4250 273° West 437 503 38,000  Level FlightAware
11:34PM 42.2110 -80.5850 273° West 439 505 38,000  Level FlightAware
11:35PM 42.2160 -80.7430 272° West 440 506 38,000  Level FlightAware
11:36PM 42.2200 -80.8430 273° West 440 506 38,000  Level FlightAware
11:37PM 42.2240 -80.9690 272° West 441 507 38,000  Level FlightAware
11:37PM 42.2270 -81.0790 272° West 443 510 38,000  Level FlightAware
11:38PM 42.2300 -81.1850 272° West 443 510 38,000  Level FlightAware
11:39PM 42.2340 -81.3180 272° West 444 511 38,000  Level FlightAware
11:40PM 42.2370 -81.4320 272° West 444 511 38,000  Level FlightAware
11:40PM 42.2410 -81.5480 273° West 444 511 38,000  Level FlightAware
11:41PM 42.2440 -81.6630 272° West 444 511 38,000  Level FlightAware
11:42PM 42.2460 -81.7690 271° West 445 512 38,000  Level FlightAware
11:42PM 42.2490 -81.8960 272° West 446 513 38,000  Level FlightAware
11:43PM 42.2520 -82.0070 272° West 445 512 38,000  Level FlightAware
11:44PM 42.2540 -82.0980 272° West 445 512 38,000  Level FlightAware
11:44PM 42.2570 -82.2220 272° West 444 511 38,000  Level FlightAware
11:45PM 42.2590 -82.3270 272° West 444 511 38,000  Level FlightAware
11:46PM 42.2610 -82.4550 271° West 443 510 38,000  Level FlightAware
11:47PM 42.2640 -82.5800 272° West 442 509 38,000  Level FlightAware
11:48PM 42.2670 -82.7500 271° West 440 506 38,000  Level FlightAware
11:48PM 42.2690 -82.8650 271° West 440 506 38,000  Level FlightAware
11:49PM 42.2710 -82.9700 272° West 439 505 38,000  Level FlightAware
11:50PM 42.2720 -83.0930 271° West 440 506 38,000  Level FlightAware
11:50PM 42.2730 -83.2080 271° West 438 504 38,000  Level FlightAware
11:51PM 42.2740 -83.2820 271° West 437 503 38,000  Level FlightAware
11:52PM 42.2750 -83.4050 271° West 436 502 38,000  Level FlightAware
11:52PM 42.2770 -83.5190 271° West 433 498 38,000  Level FlightAware
11:53PM 42.2780 -83.6310 271° West 431 496 38,000  Level FlightAware
11:54PM 42.2790 -83.7450 271° West 429 494 38,000  Level FlightAware
11:54PM 42.2800 -83.8580 271° West 428 493 38,000  Level FlightAware
11:55PM 42.2800 -83.9500 270° West 426 490 38,000  Level FlightAware
11:56PM 42.2810 -84.0760 271° West 424 488 38,000  Level FlightAware
11:56PM 42.2820 -84.1880 271° West 422 486 38,000  Level FlightAware
11:57PM 42.2820 -84.3010 270° West 420 483 38,000  Level FlightAware
11:58PM 42.2820 -84.4120 270° West 418 481 38,000  Level FlightAware
11:58PM 42.2820 -84.5030 270° West 418 481 38,000  Level FlightAware
11:59PM 42.2820 -84.6270 270° West 418 481 38,000  Level FlightAware
12:00AM 42.2820 -84.7450 270° West 416 479 38,000  Level FlightAware
12:01AM 42.2820 -84.8440 270° West 417 480 38,000  Level FlightAware
12:01AM 42.2820 -84.9530 270° West 417 480 38,000  Level FlightAware
12:02AM 42.2820 -85.0670 270° West 417 480 38,000  Level FlightAware
12:03AM 42.2810 -85.1760 269° West 416 479 38,000  Level FlightAware
12:03AM 42.2810 -85.2860 270° West 415 478 38,000  Level FlightAware
12:04AM 42.2800 -85.3930 269° West 416 479 38,000  Level FlightAware
12:05AM 42.2800 -85.5080 270° West 417 480 38,000  Level FlightAware
12:08AM 42.2790 -85.6910 270° West 421 484 38,000  Level FlightAware
12:09AM 42.2730 -86.1020 269° West 434 499 38,000  Level FlightAware
12:09AM 42.2720 -86.2150 269° West 438 504 38,000  Level FlightAware
12:10AM 42.2700 -86.3240 269° West 441 507 38,000 -360 Level FlightAware
12:11AM 42.2680 -86.4990 269° West 437 503 37,400 -840 Descending FlightAware
12:12AM 42.2650 -86.6280 268° West 430 495 36,500 -960 Descending FlightAware
12:12AM 42.2640 -86.7320 269° West 413 475 36,000 -840 Descending FlightAware
12:13AM 42.2610 -86.8440 268° West 399 459 35,400 -1,080 Descending FlightAware
12:14AM 42.2600 -86.9480 269° West 391 450 34,500 -2,040 Descending FlightAware
12:14AM 42.2580 -87.0410 268° West 395 455 32,700 -3,000 Descending FlightAware
12:15AM 42.2560 -87.1470 269° West 401 461 30,500 -2,760 Descending FlightAware
12:16AM 42.2530 -87.2650 268° West 411 473 28,700 -2,400 Descending FlightAware
12:17AM 42.2510 -87.3720 269° West 416 479 27,000 -2,520 Descending FlightAware
12:17AM 42.2480 -87.4760 268° West 407 468 25,300 -2,100 Descending FlightAware
12:18AM 42.2450 -87.5860 268° West 396 456 24,100 -960 Descending FlightAware
12:19AM 42.2430 -87.6850 268° West 394 453 24,000 -240 Descending FlightAware
12:19AM 42.2400 -87.7810 268° West 399 459 23,800 -2,340 Descending FlightAware
12:20AM 42.2370 -87.9010 268° West 417 480 20,700 -3,600 Descending FlightAware
12:21AM 42.2340 -88.0050 268° West 409 471 18,600 -3,120 Descending FlightAware
12:22AM 42.2300 -88.1160 267° West 386 444 16,400 -1,920 Descending FlightAware
12:22AM 42.2270 -88.2100 268° West 330 380 15,900 -480 Descending FlightAware
12:23AM 42.2250 -88.2880 268° West 295 339 15,800 -900 Descending FlightAware
12:24AM 42.2230 -88.3580 268° West 295 339 14,800 -2,100 Descending FlightAware
12:24AM 42.2200 -88.4410 267° West 288 331 12,900 -2,700 Descending FlightAware
12:25AM 42.2170 -88.5160 267° West 285 328 10,900 -2,820 Descending FlightAware
12:26AM 42.2150 -88.5680 267° West 287 330 9,600 -2,760 Descending FlightAware
12:26AM 42.2110 -88.5910 257° West 290 334 9,000 -2,340 Descending FlightAware
12:26AM 42.2010 -88.6350 253° West 282 325 8,100 -2,040 Descending FlightAware
12:27AM 42.1890 -88.6840 252° West 269 310 7,100 -2,040 Descending FlightAware
12:27AM 42.1790 -88.7320 254° West 258 297 6,100 -1,920 Descending FlightAware
12:28AM 42.1700 -88.7720 253° West 246 283 5,300 -1,860 Descending FlightAware
12:28AM 42.1600 -88.8140 252° West 240 276 4,400 -2,220 Descending FlightAware
12:29AM 42.1480 -88.8530 247° West 245 282 3,200 -2,400 Descending FlightAware
12:29AM 42.1330 -88.8900 241° Southwest 250 288 2,200 -1,440 Descending FlightAware
12:29AM 42.1180 -88.9270 241° Southwest 227 261 1,900 -120 Descending FlightAware
12:33AM 42.1130 -88.9490 253° West 195 224 1,900 -180 Level FlightAware
12:34AM 42.1430 -89.0970 285° West 118 136 1,400 -960 Descending FlightAware
12:34AM 42.1720 -89.0930 North 124 143 900 -2,040 Descending FlightAware
12:40AM 42.1954 -89.0972 352° North  Level Estimated
12:41AM 42.1954 -89.0972 304° West  Level Estimated